createdAt,value
2022-09-21T00:01:44.143Z,102578.38
2022-09-21T00:04:12.617Z,102579.41
2022-09-21T00:06:43.286Z,102581.72
2022-09-21T00:09:11.485Z,102575.63
2022-09-21T00:11:39.820Z,102579.41
2022-09-21T00:14:11.177Z,102577.72
2022-09-21T00:16:40.777Z,102577.72
2022-09-21T00:19:09.573Z,102576.47
2022-09-21T00:21:39.494Z,102569.94
2022-09-21T00:24:09.943Z,102570.97
2022-09-21T00:26:38.387Z,102572.25
2022-09-21T00:29:08.099Z,102578.97
2022-09-21T00:31:36.475Z,102573.50
2022-09-21T00:34:07.770Z,102571.81
2022-09-21T00:36:36.711Z,102588.44
2022-09-21T00:39:06.040Z,102583.63
2022-09-21T00:41:36.150Z,102584.66
2022-09-21T00:44:32.651Z,102582.97
2022-09-21T00:47:05.876Z,102580.25
2022-09-21T00:49:36.220Z,102583.81
2022-09-21T00:52:06.706Z,102584.84
2022-09-21T00:54:43.689Z,102576.66
2022-09-21T00:57:15.194Z,102584.44
2022-09-21T00:59:46.222Z,102580.88
2022-09-21T01:02:14.916Z,102580.22
2022-09-21T01:04:43.296Z,102580.44
2022-09-21T01:07:17.384Z,102583.78
2022-09-21T01:09:49.439Z,102581.47
2022-09-21T01:12:35.728Z,102571.78
2022-09-21T01:15:25.528Z,102584.44
2022-09-21T01:18:00.543Z,102573.50
2022-09-21T01:20:55.339Z,102583.16
2022-09-21T01:23:44.312Z,102579.78
2022-09-21T01:26:23.837Z,102575.38
2022-09-21T01:29:18.261Z,102578.09
2022-09-21T01:31:55.317Z,102582.94
2022-09-21T01:34:30.058Z,102579.53
2022-09-21T01:37:00.959Z,102586.72
2022-09-21T01:39:31.038Z,102579.13
2022-09-21T01:42:01.186Z,102582.28
2022-09-21T01:44:33.479Z,102583.34
2022-09-21T01:47:03.644Z,102579.78
2022-09-21T01:49:37.077Z,102580.81
2022-09-21T01:52:13.527Z,102578.28
2022-09-21T01:54:49.135Z,102575.56
2022-09-21T01:57:26.485Z,102573.25
2022-09-21T01:59:58.777Z,102578.06
2022-09-21T02:02:38.114Z,102574.50
2022-09-21T02:05:07.756Z,102579.13
2022-09-21T02:07:37.327Z,102576.81
2022-09-21T02:10:11.345Z,102574.72
2022-09-21T02:12:39.838Z,102567.34
2022-09-21T02:15:11.165Z,102563.97
2022-09-21T02:17:51.430Z,102577.44
2022-09-21T02:20:25.168Z,102567.13
2022-09-21T02:23:03.549Z,102570.91
2022-09-21T02:25:42.860Z,102570.06
2022-09-21T02:28:20.270Z,102573.66
2022-09-21T02:30:58.214Z,102566.47
2022-09-21T02:33:32.436Z,102563.13
2022-09-21T02:36:08.755Z,102565.44
2022-09-21T02:38:40.900Z,102561.44
2022-09-21T02:41:17.063Z,102561.66
2022-09-21T02:43:48.663Z,102562.47
2022-09-21T02:46:25.446Z,102569.63
2022-09-21T02:48:57.989Z,102567.97
2022-09-21T02:51:31.260Z,102554.47
2022-09-21T02:54:02.667Z,102560.78
2022-09-21T02:56:32.940Z,102559.53
2022-09-21T02:59:04.553Z,102559.94
2022-09-21T03:01:35.741Z,102560.97
2022-09-21T03:04:04.332Z,102559.94
2022-09-21T03:06:33.637Z,102554.47
2022-09-21T03:09:01.947Z,102553.63
2022-09-21T03:11:30.192Z,102550.44
2022-09-21T03:13:59.424Z,102543.09
2022-09-21T03:16:28.675Z,102547.72
2022-09-21T03:18:58.403Z,102543.94
2022-09-21T03:21:26.708Z,102547.72
2022-09-21T03:23:55.054Z,102547.09
2022-09-21T03:26:23.431Z,102549.84
2022-09-21T03:28:54.808Z,102556.75
2022-09-21T03:31:23.536Z,102557.38
2022-09-21T03:33:52.122Z,102557.38
2022-09-21T03:36:22.265Z,102557.81
2022-09-21T03:38:50.793Z,102551.47
2022-09-21T03:41:19.622Z,102557.81
2022-09-21T03:43:47.918Z,102551.47
2022-09-21T03:46:17.045Z,102559.47
2022-09-21T03:48:47.752Z,102554.84
2022-09-21T03:51:16.003Z,102552.34
2022-09-21T03:53:47.156Z,102544.31
2022-09-21T03:56:15.398Z,102556.09
2022-09-21T03:58:43.642Z,102552.94
2022-09-21T04:01:12.045Z,102546.22
2022-09-21T04:03:40.440Z,102551.69
2022-09-21T04:06:10.270Z,102542.66
2022-09-21T04:08:38.653Z,102551.47
2022-09-21T04:11:12.375Z,102541.16
2022-09-21T04:13:42.614Z,102543.91
2022-09-21T04:16:11.884Z,102540.75
2022-09-21T04:18:40.290Z,102539.28
2022-09-21T04:21:08.554Z,102538.66
2022-09-21T04:23:36.768Z,102538.84
2022-09-21T04:26:05.021Z,102532.56
2022-09-21T04:28:34.940Z,102530.47
2022-09-21T04:31:03.342Z,102529.59
2022-09-21T04:33:31.893Z,102525.00
2022-09-21T04:36:00.153Z,102523.94
2022-09-21T04:38:28.478Z,102528.34
2022-09-21T04:40:57.752Z,102528.34
2022-09-21T04:43:29.237Z,102522.69
2022-09-21T04:45:59.113Z,102529.00
2022-09-21T04:48:27.408Z,102526.47
2022-09-21T04:50:55.689Z,102524.59
2022-09-21T04:53:23.994Z,102526.47
2022-09-21T04:55:52.774Z,102525.41
2022-09-21T04:58:24.392Z,102527.31
2022-09-21T05:00:53.822Z,102526.25
2022-09-21T05:03:25.024Z,102524.59
2022-09-21T05:05:55.955Z,102520.13
2022-09-21T05:08:39.220Z,102521.84
2022-09-21T05:11:08.002Z,102520.13
2022-09-21T05:13:36.218Z,102516.78
2022-09-21T05:16:04.758Z,102517.41
2022-09-21T05:18:35.678Z,102523.28
2022-09-21T05:21:06.351Z,102523.28
2022-09-21T05:23:35.912Z,102513.59
2022-09-21T05:26:04.303Z,102518.47
2022-09-21T05:28:37.731Z,102512.78
2022-09-21T05:31:22.480Z,102514.84
2022-09-21T05:33:55.781Z,102521.63
2022-09-21T05:36:38.722Z,102523.72
2022-09-21T05:39:08.301Z,102523.72
2022-09-21T05:41:37.912Z,102526.25
2022-09-21T05:44:07.608Z,102529.16
2022-09-21T05:46:40.800Z,102531.72
2022-09-21T05:49:20.630Z,102536.13
2022-09-21T05:52:04.275Z,102529.59
2022-09-21T05:54:46.688Z,102532.97
2022-09-21T05:57:27.368Z,102538.03
2022-09-21T06:00:05.719Z,102539.91
2022-09-21T06:02:55.623Z,102533.59
2022-09-21T06:05:26.504Z,102539.06
2022-09-21T06:07:54.644Z,102538.44
2022-09-21T06:10:24.888Z,102533.38
2022-09-21T06:12:53.488Z,102536.72
2022-09-21T06:15:22.053Z,102536.72
2022-09-21T06:17:50.866Z,102542.84
2022-09-21T06:20:19.533Z,102536.31
2022-09-21T06:22:49.764Z,102548.53
2022-09-21T06:25:22.255Z,102552.34
2022-09-21T06:27:50.790Z,102548.53
2022-09-21T06:30:19.263Z,102554.84
2022-09-21T06:32:47.588Z,102555.31
2022-09-21T06:35:15.765Z,102557.81
2022-09-21T06:37:46.340Z,102556.56
2022-09-21T06:40:16.227Z,102552.75
2022-09-21T06:42:44.561Z,102555.13
2022-09-21T06:45:13.258Z,102552.38
2022-09-21T06:47:47.637Z,102544.78
2022-09-21T06:50:16.452Z,102551.97
2022-09-21T06:52:47.591Z,102555.31
2022-09-21T06:55:17.912Z,102558.69
2022-09-21T06:57:46.708Z,102552.19
2022-09-21T07:00:17.640Z,102556.59
2022-09-21T07:02:55.277Z,102553.44
2022-09-21T07:05:24.636Z,102557.03
2022-09-21T07:08:00.472Z,102556.59
2022-09-21T07:10:32.968Z,102556.19
2022-09-21T07:13:05.325Z,102551.34
2022-09-21T07:15:34.372Z,102550.94
2022-09-21T07:18:11.653Z,102558.09
2022-09-21T07:20:41.330Z,102555.78
2022-09-21T07:23:14.365Z,102554.72
2022-09-21T07:25:45.372Z,102558.75
2022-09-21T07:28:16.635Z,102552.03
2022-09-21T07:30:45.133Z,102557.06
2022-09-21T07:33:13.806Z,102562.13
2022-09-21T07:35:42.354Z,102557.28
2022-09-21T07:38:10.746Z,102553.50
2022-09-21T07:40:46.650Z,102558.78
2022-09-21T07:47:50.330Z,102557.72
2022-09-21T07:50:18.885Z,102561.28
2022-09-21T07:52:53.191Z,102561.72
2022-09-21T07:55:22.917Z,102555.41
2022-09-21T07:58:36.330Z,102553.09
2022-09-21T08:02:19.267Z,102561.69
2022-09-21T08:04:47.941Z,102557.69
2022-09-21T08:07:21.611Z,102564.25
2022-09-21T08:09:52.299Z,102565.06
2022-09-21T08:12:48.652Z,102568.25
2022-09-21T08:15:47.075Z,102562.16
2022-09-21T08:18:11.315Z,102564.03
2022-09-21T08:20:42.355Z,102561.06
2022-09-21T08:23:12.693Z,102560.47
2022-09-21T08:25:41.297Z,102563.22
2022-09-21T08:28:12.001Z,102565.53
2022-09-21T08:30:46.918Z,102561.72
2022-09-21T08:33:15.623Z,102568.25
2022-09-21T08:35:52.904Z,102563.22
2022-09-21T08:38:24.200Z,102569.09
2022-09-21T08:40:54.274Z,102557.53
2022-09-21T08:43:35.148Z,102564.06
2022-09-21T08:46:11.436Z,102565.94
2022-09-21T08:48:46.658Z,102568.47
2022-09-21T08:51:22.193Z,102563.19
2022-09-21T08:53:55.520Z,102559.81
2022-09-21T08:56:41.588Z,102563.41
2022-09-21T08:59:16.885Z,102565.72
2022-09-21T09:01:58.650Z,102569.69
2022-09-21T09:04:41.744Z,102571.78
2022-09-21T09:07:19.261Z,102569.69
2022-09-21T09:10:17.729Z,102568.81
2022-09-21T09:13:02.090Z,102567.31
2022-09-21T09:15:46.861Z,102573.88
2022-09-21T09:18:25.518Z,102572.78
2022-09-21T09:20:59.363Z,102576.38
2022-09-21T09:23:30.207Z,102573.63
2022-09-21T09:26:01.755Z,102569.19
2022-09-21T09:28:36.598Z,102577.84
2022-09-21T09:31:14.247Z,102575.88
2022-09-21T09:33:53.189Z,102577.34
2022-09-21T09:36:46.516Z,102581.38
2022-09-21T09:39:15.601Z,102580.94
2022-09-21T09:42:27.290Z,102580.94
2022-09-21T09:45:26.382Z,102575.22
2022-09-21T09:48:09.018Z,102578.97
2022-09-21T09:50:42.974Z,102583.63
2022-09-21T09:53:15.777Z,102584.03
2022-09-21T09:55:48.067Z,102575.16
2022-09-21T09:58:20.604Z,102581.09
2022-09-21T10:00:53.322Z,102580.22
2022-09-21T10:03:23.508Z,102578.34
2022-09-21T10:05:55.993Z,102577.03
2022-09-21T10:08:47.601Z,102575.34
2022-09-21T10:11:17.302Z,102577.22
2022-09-21T10:13:48.349Z,102576.13
2022-09-21T10:16:21.594Z,102573.41
2022-09-21T10:18:52.422Z,102563.50
2022-09-21T10:21:24.436Z,102564.78
2022-09-21T10:23:58.398Z,102570.19
2022-09-21T10:26:32.692Z,102564.63
2022-09-21T10:29:02.493Z,102568.41
2022-09-21T10:31:31.930Z,102569.59
2022-09-21T10:34:13.112Z,102566.66
2022-09-21T10:36:50.358Z,102558.59
2022-09-21T10:39:27.148Z,102565.56
2022-09-21T10:42:00.460Z,102556.94
2022-09-21T10:44:35.699Z,102562.44
2022-09-21T10:47:16.909Z,102563.72
2022-09-21T10:49:50.364Z,102556.50
2022-09-21T10:52:23.463Z,102554.97
2022-09-21T10:54:55.257Z,102555.72
2022-09-21T10:57:25.309Z,102557.22
2022-09-21T10:59:53.492Z,102553.66
2022-09-21T11:02:36.286Z,102555.50
2022-09-21T11:05:12.152Z,102556.72
2022-09-21T11:07:48.940Z,102547.59
2022-09-21T11:10:24.995Z,102556.22
2022-09-21T11:13:17.846Z,102549.88
2022-09-21T11:15:52.945Z,102540.34
2022-09-21T11:18:27.958Z,102550.66
2022-09-21T11:21:01.643Z,102542.72
2022-09-21T11:23:48.533Z,102534.22
2022-09-21T11:26:22.757Z,102536.25
2022-09-21T11:28:56.848Z,102542.50
2022-09-21T11:31:48.552Z,102544.47
2022-09-21T11:34:35.220Z,102543.28
2022-09-21T11:37:14.354Z,102531.19
2022-09-21T11:40:00.072Z,102523.66
2022-09-21T11:42:43.395Z,102523.81
2022-09-21T11:45:27.509Z,102528.31
2022-09-21T11:48:08.333Z,102520.16
2022-09-21T11:50:41.622Z,102520.59
2022-09-21T11:53:26.628Z,102520.16
2022-09-21T11:56:08.652Z,102515.19
2022-09-21T11:58:45.129Z,102519.66
2022-09-21T12:01:36.839Z,102512.88
2022-09-21T12:04:24.135Z,102509.91
2022-09-21T12:07:05.543Z,102507.97
2022-09-21T12:10:15.189Z,102502.19
2022-09-21T12:12:51.453Z,102502.81
2022-09-21T12:15:25.726Z,102500.44
2022-09-21T12:18:04.193Z,102499.13
2022-09-21T12:20:43.307Z,102496.97
2022-09-21T12:23:16.892Z,102500.09
2022-09-21T12:25:52.056Z,102493.38
2022-09-21T12:28:26.149Z,102486.69
2022-09-21T12:31:02.593Z,102497.59
2022-09-21T12:33:36.905Z,102488.09
2022-09-21T12:36:12.129Z,102473.75
2022-09-21T12:38:47.404Z,102484.91
2022-09-21T12:41:20.214Z,102467.91
2022-09-21T12:43:54.612Z,102471.00
2022-09-21T12:46:27.156Z,102466.22
2022-09-21T12:48:55.566Z,102468.38
2022-09-21T12:51:30.269Z,102463.84
2022-09-21T12:54:06.573Z,102458.78
2022-09-21T12:56:44.932Z,102458.06
2022-09-21T12:59:26.516Z,102457.59
2022-09-21T13:02:05.814Z,102453.13
2022-09-21T13:04:45.372Z,102452.22
2022-09-21T13:07:44.404Z,102448.50
2022-09-21T13:10:22.104Z,102442.50
2022-09-21T13:12:55.188Z,102441.91
2022-09-21T13:15:28.467Z,102440.94
2022-09-21T13:18:01.938Z,102438.78
2022-09-21T13:20:36.408Z,102436.84
2022-09-21T13:23:05.260Z,102430.88
2022-09-21T13:25:37.702Z,102425.72
2022-09-21T13:28:19.886Z,102427.25
2022-09-21T13:30:51.260Z,102430.41
2022-09-21T13:33:39.063Z,102428.69
2022-09-21T13:36:32.311Z,102428.94
2022-09-21T13:39:17.370Z,102425.25
2022-09-21T13:42:02.446Z,102415.91
2022-09-21T13:44:43.652Z,102412.56
2022-09-21T13:47:14.740Z,102417.72
2022-09-21T13:49:57.055Z,102408.94
2022-09-21T13:52:33.665Z,102409.22
2022-09-21T13:55:05.590Z,102409.22
2022-09-21T13:57:39.160Z,102409.56
2022-09-21T14:00:30.856Z,102412.09
2022-09-21T14:03:04.636Z,102401.53
2022-09-21T14:05:37.140Z,102395.09
2022-09-21T14:08:19.457Z,102395.91
2022-09-21T14:10:54.286Z,102388.72
2022-09-21T14:13:34.842Z,102396.41
2022-09-21T14:16:41.938Z,102386.81
2022-09-21T14:19:43.276Z,102391.97
2022-09-21T14:22:37.772Z,102388.94
2022-09-21T14:25:52.263Z,102382.94
2022-09-21T14:28:35.151Z,102386.09
2022-09-21T14:31:07.721Z,102380.56
2022-09-21T14:33:45.939Z,102386.66
2022-09-21T14:36:20.691Z,102378.16
2022-09-21T14:38:54.719Z,102377.59
2022-09-21T14:41:25.018Z,102377.94
2022-09-21T14:43:55.621Z,102372.53
2022-09-21T14:46:52.010Z,102370.03
2022-09-21T14:49:37.935Z,102368.22
2022-09-21T14:52:27.834Z,102363.53
2022-09-21T14:55:10.560Z,102362.47
2022-09-21T14:58:00.009Z,102361.84
2022-09-21T15:00:39.694Z,102358.75
2022-09-21T15:03:31.802Z,102355.50
2022-09-21T15:06:30.583Z,102350.09
2022-09-21T15:09:45.556Z,102349.66
2022-09-21T15:12:19.947Z,102341.66
2022-09-21T15:14:53.517Z,102348.59
2022-09-21T15:17:26.399Z,102343.22
2022-09-21T15:20:00.869Z,102340.06
2022-09-21T15:22:29.361Z,102334.84
2022-09-21T15:24:59.222Z,102335.66
2022-09-21T15:27:33.333Z,102330.88
2022-09-21T15:30:04.555Z,102325.53
2022-09-21T15:32:37.823Z,102329.66
2022-09-21T15:35:16.940Z,102326.78
2022-09-21T15:37:46.389Z,102327.13
2022-09-21T15:40:21.771Z,102320.69
2022-09-21T15:43:01.970Z,102318.41
2022-09-21T15:45:33.938Z,102326.91
2022-09-21T15:48:03.494Z,102325.47
2022-09-21T15:50:31.866Z,102316.72
2022-09-21T15:53:04.653Z,102315.41
2022-09-21T15:55:33.871Z,102311.81
2022-09-21T15:58:04.392Z,102312.84
2022-09-21T16:00:38.685Z,102307.50
2022-09-21T16:03:09.887Z,102310.97
2022-09-21T16:05:46.171Z,102308.94
2022-09-21T16:08:33.063Z,102309.41
2022-09-21T16:11:17.318Z,102305.69
2022-09-21T16:14:05.422Z,102297.16
2022-09-21T16:16:33.914Z,102296.47
2022-09-21T16:19:43.528Z,102297.81
2022-09-21T16:22:13.830Z,102291.47
2022-09-21T16:24:46.292Z,102301.28
2022-09-21T16:27:19.173Z,102289.44
2022-09-21T16:29:50.172Z,102285.75
2022-09-21T16:32:28.929Z,102299.06
2022-09-21T16:35:25.328Z,102305.41
2022-09-21T16:37:57.506Z,102305.03
2022-09-21T16:40:26.235Z,102296.09
2022-09-21T16:42:54.460Z,102305.03
2022-09-21T16:45:28.610Z,102310.91
2022-09-21T16:47:57.687Z,102308.53
2022-09-21T16:50:26.092Z,102309.59
2022-09-21T16:52:54.242Z,102308.41
2022-09-21T16:55:28.258Z,102315.13
2022-09-21T16:57:57.424Z,102315.25
2022-09-21T17:00:31.656Z,102315.72
2022-09-21T17:03:01.092Z,102311.06
2022-09-21T17:05:29.254Z,102308.31
2022-09-21T17:08:00.032Z,102315.59
2022-09-21T17:10:30.012Z,102320.75
2022-09-21T17:12:59.265Z,102314.03
2022-09-21T17:15:32.416Z,102315.47
2022-09-21T17:18:00.804Z,102316.03
2022-09-21T17:20:34.438Z,102318.44
2022-09-21T17:23:03.247Z,102314.50
2022-09-21T17:25:34.689Z,102314.84
2022-09-21T17:28:04.202Z,102321.16
2022-09-21T17:30:35.098Z,102314.94
2022-09-21T17:33:06.066Z,102313.97
2022-09-21T17:35:38.822Z,102303.91
2022-09-21T17:38:11.251Z,102315.84
2022-09-21T17:40:43.605Z,102315.47
2022-09-21T17:43:37.314Z,102315.09
2022-09-21T17:46:14.043Z,102311.84
2022-09-21T17:48:42.862Z,102320.19
2022-09-21T17:51:12.186Z,102320.44
2022-09-21T17:53:41.736Z,102312.03
2022-09-21T17:56:26.752Z,102312.59
2022-09-21T17:59:01.567Z,102321.91
2022-09-21T18:01:34.990Z,102325.56
2022-09-21T18:04:03.868Z,102327.28
2022-09-21T18:06:32.840Z,102333.03
2022-09-21T18:09:01.621Z,102320.38
2022-09-21T18:12:02.450Z,102332.69
2022-09-21T18:14:41.128Z,102336.09
2022-09-21T18:17:24.997Z,102341.22
2022-09-21T18:20:08.393Z,102345.84
2022-09-21T18:22:49.928Z,102345.47
2022-09-21T18:25:28.632Z,102350.50
2022-09-21T18:27:59.147Z,102341.66
2022-09-21T18:30:27.882Z,102343.19
2022-09-21T18:33:10.657Z,102346.78
2022-09-21T18:35:56.220Z,102340.44
2022-09-21T18:38:32.741Z,102345.13
2022-09-21T18:41:12.905Z,102349.38
2022-09-21T18:43:52.559Z,102349.53
2022-09-21T18:46:25.130Z,102354.81
2022-09-21T18:49:03.265Z,102348.91
2022-09-21T18:51:40.396Z,102351.91
2022-09-21T18:54:17.189Z,102346.78
2022-09-21T18:56:45.940Z,102356.56
2022-09-21T18:59:15.605Z,102354.50
2022-09-21T19:01:45.055Z,102352.13
2022-09-21T19:04:17.148Z,102359.59
2022-09-21T19:06:50.519Z,102357.91
2022-09-21T19:09:34.543Z,102363.03
2022-09-21T19:12:13.781Z,102359.59
2022-09-21T19:14:50.309Z,102355.41
2022-09-21T19:17:38.605Z,102356.25
2022-09-21T19:20:27.777Z,102358.38
2022-09-21T19:23:03.639Z,102365.97
2022-09-21T19:25:40.149Z,102369.47
2022-09-21T19:28:23.289Z,102364.41
2022-09-21T19:31:00.145Z,102367.03
2022-09-21T19:33:49.612Z,102358.34
2022-09-21T19:36:21.266Z,102371.91
2022-09-21T19:38:49.719Z,102365.81
2022-09-21T19:41:43.017Z,102361.66
2022-09-21T19:44:31.305Z,102365.94
2022-09-21T19:47:07.541Z,102363.19
2022-09-21T19:49:46.282Z,102362.38
2022-09-21T19:52:18.873Z,102363.25
2022-09-21T19:55:05.028Z,102368.50
2022-09-21T19:57:52.539Z,102369.72
2022-09-21T20:00:22.747Z,102363.47
2022-09-21T20:03:01.021Z,102358.44
2022-09-21T20:05:38.475Z,102370.47
2022-09-21T20:08:18.199Z,102370.88
2022-09-21T20:11:06.868Z,102367.72
2022-09-21T20:13:59.865Z,102363.53
2022-09-21T20:16:39.702Z,102366.06
2022-09-21T20:19:19.033Z,102363.72
2022-09-21T20:21:53.187Z,102360.56
2022-09-21T20:24:27.080Z,102347.94
2022-09-21T20:26:55.663Z,102356.34
2022-09-21T20:29:23.689Z,102364.78
2022-09-21T20:31:54.113Z,102359.75
2022-09-21T20:34:22.224Z,102356.78
2022-09-21T20:36:50.226Z,102356.81
2022-09-21T20:39:18.272Z,102352.59
2022-09-21T20:41:47.700Z,102348.00
2022-09-21T20:44:15.828Z,102347.56
2022-09-21T20:46:43.850Z,102349.03
2022-09-21T20:49:15.314Z,102349.28
2022-09-21T20:51:43.395Z,102344.41
2022-09-21T20:54:11.439Z,102341.66
2022-09-21T20:56:39.605Z,102344.00
2022-09-21T20:59:09.015Z,102337.69
2022-09-21T21:01:39.401Z,102344.00
2022-09-21T21:04:07.579Z,102338.31
2022-09-21T21:06:35.661Z,102325.88
2022-09-21T21:09:03.808Z,102339.16
2022-09-21T21:11:31.898Z,102336.03
2022-09-21T21:14:00.093Z,102332.66
2022-09-21T21:16:29.679Z,102337.91
2022-09-21T21:18:57.862Z,102337.25
2022-09-21T21:21:25.993Z,102341.09
2022-09-21T21:24:11.760Z,102346.56
2022-09-21T21:27:00.876Z,102346.19
2022-09-21T21:29:28.220Z,102351.03
2022-09-21T21:31:59.196Z,102348.50
2022-09-21T21:34:27.711Z,102352.31
2022-09-21T21:36:56.045Z,102355.69
2022-09-21T21:39:24.320Z,102343.91
2022-09-21T21:41:52.323Z,102347.66
2022-09-21T21:44:20.348Z,102341.72
2022-09-21T21:46:48.416Z,102351.44
2022-09-21T21:49:18.039Z,102340.91
2022-09-21T21:51:46.161Z,102341.53
2022-09-21T21:54:14.918Z,102324.47
2022-09-21T21:56:42.971Z,102339.25
2022-09-21T21:59:15.404Z,102340.09
2022-09-21T22:01:45.677Z,102337.78
2022-09-21T22:04:14.198Z,102343.94
2022-09-21T22:06:43.949Z,102337.63
2022-09-21T22:09:12.869Z,102341.44
2022-09-21T22:11:42.952Z,102340.16
2022-09-21T22:14:11.817Z,102344.75
2022-09-21T22:16:40.360Z,102333.16
2022-09-21T22:19:09.458Z,102339.53
2022-09-21T22:21:41.070Z,102341.44
2022-09-21T22:24:11.304Z,102342.25
2022-09-21T22:26:41.807Z,102340.59
2022-09-21T22:29:13.207Z,102335.13
2022-09-21T22:31:44.365Z,102335.94
2022-09-21T22:34:13.600Z,102322.44
2022-09-21T22:36:43.702Z,102321.41
2022-09-21T22:39:13.866Z,102326.72
2022-09-21T22:41:43.415Z,102323.34
2022-09-21T22:44:11.877Z,102316.59
2022-09-21T22:46:40.082Z,102320.81
2022-09-21T22:49:08.834Z,102319.22
2022-09-21T22:51:38.084Z,102318.75
2022-09-21T22:54:07.277Z,102314.75
2022-09-21T22:56:36.751Z,102326.81
2022-09-21T22:59:06.152Z,102317.13
2022-09-21T23:01:36.273Z,102319.03
2022-09-21T23:04:06.413Z,102321.78
2022-09-21T23:06:36.865Z,102305.78
2022-09-21T23:09:07.167Z,102313.38
2022-09-21T23:11:38.720Z,102306.88
2022-09-21T23:14:07.002Z,102312.78
2022-09-21T23:16:35.270Z,102315.94
2022-09-21T23:19:03.464Z,102305.66
2022-09-21T23:21:31.978Z,102303.31
2022-09-21T23:24:03.287Z,102305.66
2022-09-21T23:26:33.992Z,102293.91
2022-09-21T23:29:08.909Z,102299.63
2022-09-21T23:31:41.123Z,102295.41
2022-09-21T23:34:13.252Z,102290.34
2022-09-21T23:36:42.283Z,102285.31
2022-09-21T23:39:12.588Z,102289.31
2022-09-21T23:41:40.715Z,102285.13
2022-09-21T23:44:10.538Z,102285.97
2022-09-21T23:46:40.357Z,102281.56
2022-09-21T23:49:08.622Z,102282.44
2022-09-21T23:51:36.946Z,102283.72
2022-09-21T23:54:05.589Z,102283.13
2022-09-21T23:56:34.481Z,102282.06
2022-09-21T23:59:03.092Z,102286.09
